Hiroshima, Japan
Current Conditions -  °F | °C
As of 2:55 PM on Saturday 29 Nov 2014 (Local Time) from RJOI Reporting Station
Broken Clouds Broken Clouds  
Wind Chill: 71°   Ceiling: 5000
Heat Index: 71°   Visibility: 6mi
Dew Point: 43°   Wind: 6mph
Humidity: 36%   Direction: 290°WNW
Pressure: 30.02"   Gusts: NA
Location:  34.39°N, 132.44°E
Report Text: RJOI 290555Z 29005KT 9999 FEW030 BKN050 22/06 A3002 RMK SLP164 T02170061 10222 20189 56003
Loading
Personal Weather Stations






























Interactive Weather Map New forecast layout! Learn more

10-Day Weather Forecast

Advertisements
Track Severe Weather on mobile